Time;durP1;ratioP1;P1;durP2;ratioP2;P2;SDS_P1;SDS_P2;PMS_P1;PMS_P2;Temp;Humidity;BMP_temperature;BMP_pressure;BME280_temperature;BME280_humidity;BME280_pressure;Samples;Min_cycle;Max_cycle;Signal;HPM_P1;HPM_P2
2021/03/22 00:00:12;;;;;;;28.63;15.53;;;0.10;99.90;;;;;;4205043;28;20285;-64
2021/03/22 00:02:13;;;;;;;32.57;17.23;;;0.10;99.90;;;;;;4204484;28;20675;-65
2021/03/22 00:04:14;;;;;;;42.90;21.33;;;0.10;99.90;;;;;;4204962;28;20276;-63
2021/03/22 00:06:15;;;;;;;36.80;19.47;;;0.10;99.90;;;;;;4205143;28;20245;-64
2021/03/22 00:08:18;;;;;;;34.77;18.13;;;0.00;99.90;;;;;;4204475;28;20738;-63
2021/03/22 00:10:21;;;;;;;39.37;18.70;;;0.00;99.90;;;;;;4204970;28;20307;-64
2021/03/22 00:12:22;;;;;;;37.97;18.77;;;-0.10;99.90;;;;;;4204886;28;20342;-62
2021/03/22 00:14:24;;;;;;;38.07;19.07;;;-0.10;99.90;;;;;;4205544;28;20318;-65
2021/03/22 00:16:25;;;;;;;38.03;17.93;;;-0.10;99.90;;;;;;4204955;28;20814;-64
2021/03/22 00:18:30;;;;;;;40.07;19.73;;;-0.10;99.90;;;;;;4205834;28;20281;-65
2021/03/22 00:20:31;;;;;;;36.33;18.20;;;-0.20;99.90;;;;;;4203262;28;20290;-65
2021/03/22 00:22:33;;;;;;;34.33;17.53;;;-0.20;99.90;;;;;;4205783;28;20269;-64
2021/03/22 00:24:34;;;;;;;38.77;19.27;;;-0.10;99.90;;;;;;4204491;28;20352;-65
2021/03/22 00:26:36;;;;;;;37.77;20.23;;;-0.20;99.90;;;;;;4206240;28;20781;-63
2021/03/22 00:28:41;;;;;;;37.13;18.37;;;-0.10;99.90;;;;;;4206642;28;20269;-63
2021/03/22 00:30:43;;;;;;;38.00;16.97;;;-0.10;99.90;;;;;;4208460;28;20297;-64
2021/03/22 00:32:44;;;;;;;35.23;18.43;;;-0.10;99.90;;;;;;4207946;28;20304;-63
2021/03/22 00:34:45;;;;;;;37.70;17.97;;;-0.10;99.90;;;;;;4208384;28;20264;-63
2021/03/22 00:36:46;;;;;;;35.27;16.17;;;-0.10;99.90;;;;;;4208197;28;20667;-63
2021/03/22 00:38:49;;;;;;;34.67;16.37;;;-0.10;99.90;;;;;;4207963;28;20417;-62
2021/03/22 00:40:50;;;;;;;31.60;16.03;;;-0.10;99.90;;;;;;4207492;28;20883;-62
2021/03/22 00:42:53;;;;;;;28.40;15.87;;;-0.10;99.90;;;;;;4207459;28;20326;-66
2021/03/22 00:44:54;;;;;;;29.77;15.03;;;-0.10;99.90;;;;;;4208055;28;20346;-65
2021/03/22 00:46:55;;;;;;;32.17;15.70;;;-0.20;99.90;;;;;;4207484;28;20904;-65
2021/03/22 00:48:56;;;;;;;29.93;15.23;;;-0.20;99.90;;;;;;4207144;28;20813;-66
2021/03/22 00:50:58;;;;;;;34.33;16.87;;;-0.10;99.90;;;;;;4207275;28;20261;-65
2021/03/22 00:52:59;;;;;;;30.17;17.17;;;-0.20;99.90;;;;;;4208104;28;20300;-66
2021/03/22 00:55:00;;;;;;;34.83;17.70;;;-0.20;99.90;;;;;;4207241;28;20265;-64
2021/03/22 00:57:02;;;;;;;30.37;17.10;;;-0.20;99.90;;;;;;4207961;28;20277;-63
2021/03/22 00:59:03;;;;;;;30.43;15.03;;;-0.20;99.90;;;;;;4207394;28;20302;-63
2021/03/22 01:01:04;;;;;;;32.00;15.50;;;-0.20;99.90;;;;;;4207912;28;20346;-63
2021/03/22 01:03:10;;;;;;;32.27;16.47;;;-0.20;99.90;;;;;;4207602;28;20276;-64
2021/03/22 01:05:12;;;;;;;31.33;15.70;;;-0.20;99.90;;;;;;4207637;28;20338;-62
2021/03/22 01:07:13;;;;;;;31.20;15.10;;;-0.20;99.90;;;;;;4207302;28;20280;-63
2021/03/22 01:09:14;;;;;;;28.30;15.33;;;-0.20;99.90;;;;;;4207074;28;20533;-65
2021/03/22 01:11:20;;;;;;;30.53;15.20;;;-0.20;99.90;;;;;;4206907;28;20833;-63
2021/03/22 01:13:42;;;;;;;34.57;16.23;;;-0.20;99.90;;;;;;4207408;28;20330;-62
2021/03/22 01:15:44;;;;;;;33.90;15.67;;;-0.30;99.90;;;;;;4207192;28;20269;-63
2021/03/22 01:17:46;;;;;;;28.37;16.03;;;-0.30;99.90;;;;;;4206845;28;21204;-62
2021/03/22 01:19:47;;;;;;;31.27;15.20;;;-0.30;99.90;;;;;;4207438;28;20358;-63
2021/03/22 01:21:51;;;;;;;29.73;14.60;;;-0.30;99.90;;;;;;4206959;28;20752;-63
2021/03/22 01:23:53;;;;;;;31.90;15.97;;;-0.30;99.90;;;;;;4206524;28;20338;-61
2021/03/22 01:25:54;;;;;;;30.73;13.77;;;-0.20;99.90;;;;;;4206649;28;20313;-63
2021/03/22 01:27:56;;;;;;;30.27;14.83;;;-0.30;99.90;;;;;;4207295;28;20683;-63
2021/03/22 01:29:57;;;;;;;28.07;14.97;;;-0.30;99.90;;;;;;4206722;28;20821;-62
2021/03/22 01:32:00;;;;;;;28.30;14.63;;;-0.30;99.90;;;;;;4207461;28;20318;-63
2021/03/22 01:34:01;;;;;;;31.93;16.27;;;-0.20;99.90;;;;;;4206640;28;20342;-66
2021/03/22 01:36:10;;;;;;;30.43;13.50;;;-0.30;99.90;;;;;;4207613;28;20679;-66
2021/03/22 01:38:11;;;;;;;30.83;15.33;;;-0.30;99.90;;;;;;4205823;28;20277;-65
2021/03/22 01:40:30;;;;;;;30.33;15.80;;;-0.30;99.90;;;;;;4207309;28;20273;-64
2021/03/22 01:42:46;;;;;;;32.27;15.87;;;-0.30;99.90;;;;;;4206046;28;20326;-63
2021/03/22 01:45:00;;;;;;;25.80;13.57;;;-0.30;99.90;;;;;;4207728;28;20329;-63
2021/03/22 01:47:04;;;;;;;29.80;13.87;;;-0.20;99.90;;;;;;4206196;28;20307;-63
2021/03/22 01:49:06;;;;;;;27.30;13.53;;;-0.20;99.90;;;;;;4207789;28;20290;-63
2021/03/22 01:51:07;;;;;;;34.77;14.50;;;-0.20;99.90;;;;;;4206458;28;20260;-62
2021/03/22 01:53:09;;;;;;;27.50;13.60;;;-0.20;99.90;;;;;;4205704;28;20361;-62
2021/03/22 01:55:12;;;;;;;23.43;11.17;;;-0.20;99.90;;;;;;4206283;28;20595;-64
2021/03/22 01:57:35;;;;;;;22.90;11.63;;;-0.20;99.90;;;;;;4206892;28;20694;-64
2021/03/22 01:59:36;;;;;;;21.97;12.03;;;-0.20;99.90;;;;;;4206140;28;20338;-63
2021/03/22 02:01:41;;;;;;;23.67;11.47;;;-0.20;99.90;;;;;;4207268;28;20276;-61
2021/03/22 02:03:43;;;;;;;25.03;13.60;;;-0.20;99.90;;;;;;4206556;28;20265;-63
2021/03/22 02:05:49;;;;;;;32.60;14.67;;;-0.30;99.90;;;;;;4207101;28;20277;-65
2021/03/22 02:08:05;;;;;;;31.77;16.63;;;-0.30;99.90;;;;;;4206566;28;20314;-63
2021/03/22 02:10:08;;;;;;;33.93;16.63;;;-0.40;99.90;;;;;;4207183;28;20272;-63
2021/03/22 02:12:19;;;;;;;31.33;15.73;;;-0.40;99.90;;;;;;4206214;28;20801;-63
2021/03/22 02:14:21;;;;;;;34.60;17.57;;;-0.40;99.90;;;;;;4206664;28;20825;-61
2021/03/22 02:16:28;;;;;;;34.00;16.27;;;-0.40;99.90;;;;;;4206337;28;20268;-63
2021/03/22 02:18:47;;;;;;;33.10;18.53;;;-0.50;99.90;;;;;;4206856;28;20959;-63
2021/03/22 02:21:13;;;;;;;31.33;15.90;;;-0.50;99.90;;;;;;4206360;28;20338;-63
2021/03/22 02:23:42;;;;;;;29.17;15.53;;;-0.60;99.90;;;;;;4206862;28;20840;-62
2021/03/22 02:25:52;;;;;;;32.40;16.23;;;-0.70;99.90;;;;;;4205322;28;20272;-63
2021/03/22 02:28:21;;;;;;;31.77;15.63;;;-0.70;99.90;;;;;;4206833;28;20342;-63
2021/03/22 02:30:49;;;;;;;28.40;14.63;;;-0.80;99.90;;;;;;4205411;28;20276;-63
2021/03/22 02:33:09;;;;;;;30.40;15.43;;;-0.80;99.90;;;;;;4180539;28;20327;-63
2021/03/22 02:35:33;;;;;;;27.50;14.63;;;-0.90;99.90;;;;;;4205678;28;20317;-63
2021/03/22 02:37:48;;;;;;;27.77;13.90;;;-0.90;99.90;;;;;;4206508;28;20264;-61
2021/03/22 02:40:07;;;;;;;27.97;13.93;;;-0.90;99.90;;;;;;4206039;28;20273;-63
2021/03/22 02:42:11;;;;;;;29.50;14.17;;;-0.90;99.90;;;;;;4206123;28;20306;-63
2021/03/22 02:44:16;;;;;;;30.40;14.73;;;-0.90;99.90;;;;;;4205941;28;20269;-63
2021/03/22 02:46:17;;;;;;;28.93;13.53;;;-0.90;99.90;;;;;;4206315;28;20269;-62
2021/03/22 02:48:24;;;;;;;28.80;12.83;;;-0.90;99.90;;;;;;4206420;28;20265;-64
2021/03/22 02:50:31;;;;;;;27.13;13.13;;;-0.90;99.90;;;;;;4205135;28;20660;-63
2021/03/22 02:53:04;;;;;;;27.00;13.53;;;-0.90;99.90;;;;;;4205820;28;20735;-63
2021/03/22 02:55:27;;;;;;;26.27;13.10;;;-0.90;99.90;;;;;;4205471;28;20276;-62
2021/03/22 02:57:28;;;;;;;27.43;13.13;;;-0.90;99.90;;;;;;4205884;28;20268;-63
2021/03/22 02:59:35;;;;;;;32.07;14.77;;;-0.90;99.90;;;;;;4205167;28;20334;-65
2021/03/22 03:01:47;;;;;;;25.93;13.10;;;-0.90;99.90;;;;;;4205491;28;20288;-63
2021/03/22 03:03:51;;;;;;;24.87;13.20;;;-1.00;99.90;;;;;;4205689;28;20322;-63
2021/03/22 03:05:54;;;;;;;22.90;11.37;;;-1.00;99.90;;;;;;4205420;28;20273;-65
2021/03/22 03:08:13;;;;;;;23.70;12.13;;;-1.00;99.90;;;;;;4204107;28;20318;-63
2021/03/22 03:10:18;;;;;;;24.43;11.87;;;-1.10;99.90;;;;;;4205124;28;20405;-64
2021/03/22 03:12:22;;;;;;;24.23;12.77;;;-1.20;99.90;;;;;;4205484;28;20265;-63
2021/03/22 03:14:24;;;;;;;27.90;13.33;;;-1.20;99.90;;;;;;4205403;28;20293;-63
2021/03/22 03:16:25;;;;;;;25.73;13.03;;;-1.30;99.90;;;;;;4205576;28;20671;-64
2021/03/22 03:18:26;;;;;;;27.97;13.37;;;-1.30;99.90;;;;;;4205388;28;20318;-62
2021/03/22 03:20:30;;;;;;;29.77;14.27;;;-1.30;99.90;;;;;;4205394;28;20799;-63
2021/03/22 03:22:32;;;;;;;27.17;13.83;;;-1.30;99.90;;;;;;4205251;28;20337;-63
2021/03/22 03:24:33;;;;;;;32.13;13.87;;;-1.40;99.90;;;;;;4205947;28;20276;-63
2021/03/22 03:26:36;;;;;;;31.00;15.20;;;-1.40;99.90;;;;;;4204774;28;20257;-62
2021/03/22 03:28:37;;;;;;;32.40;15.17;;;-1.40;99.90;;;;;;4206025;28;20253;-64
2021/03/22 03:30:39;;;;;;;29.23;14.13;;;-1.40;99.90;;;;;;4205219;28;20606;-64
2021/03/22 03:32:41;;;;;;;30.70;16.13;;;-1.50;99.90;;;;;;4205968;28;20596;-65
2021/03/22 03:34:43;;;;;;;31.57;15.70;;;-1.50;99.90;;;;;;4205029;28;20772;-64
2021/03/22 03:36:44;;;;;;;31.20;16.63;;;-1.60;99.90;;;;;;4205554;28;20260;-65
2021/03/22 03:38:45;;;;;;;40.13;16.37;;;-1.60;99.90;;;;;;4205206;28;20269;-64
2021/03/22 03:40:47;;;;;;;36.53;17.03;;;-1.70;99.90;;;;;;4205176;28;20326;-64
2021/03/22 03:42:48;;;;;;;34.67;16.13;;;-1.70;99.90;;;;;;4203964;28;20280;-63
2021/03/22 03:44:50;;;;;;;31.90;15.53;;;-1.70;99.90;;;;;;4205515;28;20268;-65
2021/03/22 03:46:51;;;;;;;34.37;15.97;;;-1.70;99.90;;;;;;4205668;28;20269;-63
2021/03/22 03:48:52;;;;;;;34.77;15.73;;;-1.70;99.90;;;;;;4204863;28;20268;-62
2021/03/22 03:50:56;;;;;;;37.60;16.07;;;-1.70;99.90;;;;;;4205906;28;21102;-63
2021/03/22 03:52:57;;;;;;;38.57;18.77;;;-1.70;99.90;;;;;;4205027;28;20265;-62
2021/03/22 03:55:00;;;;;;;47.93;20.83;;;-1.70;99.90;;;;;;4205579;28;20349;-62
2021/03/22 03:57:01;;;;;;;48.77;21.40;;;-1.80;99.90;;;;;;4205038;28;20273;-62
2021/03/22 03:59:03;;;;;;;45.13;20.57;;;-1.80;99.90;;;;;;4205815;28;20261;-63
2021/03/22 04:01:05;;;;;;;36.43;16.83;;;-1.70;99.90;;;;;;4204505;28;20257;-65
2021/03/22 04:03:30;;;;;;;33.67;16.27;;;-1.70;99.90;;;;;;4190535;28;20273;-65
2021/03/22 04:05:32;;;;;;;30.73;16.10;;;-1.70;99.90;;;;;;4208235;28;20342;-63
2021/03/22 04:07:33;;;;;;;36.63;17.57;;;-1.70;99.90;;;;;;4208473;28;20365;-63
2021/03/22 04:09:34;;;;;;;35.20;17.37;;;-1.70;99.90;;;;;;4207477;28;20280;-62
2021/03/22 04:11:47;;;;;;;35.67;17.23;;;-1.70;99.90;;;;;;4207371;28;20273;-65
2021/03/22 04:13:48;;;;;;;34.93;16.47;;;-1.70;99.90;;;;;;4206233;28;20425;-63
2021/03/22 04:15:50;;;;;;;35.60;16.00;;;-1.70;99.90;;;;;;4208431;28;20749;-62
2021/03/22 04:17:51;;;;;;;32.53;16.37;;;-1.70;99.90;;;;;;4207906;28;20268;-63
2021/03/22 04:19:52;;;;;;;34.43;17.73;;;-1.80;99.90;;;;;;4209312;28;20321;-63
2021/03/22 04:21:53;;;;;;;32.83;15.97;;;-1.80;99.90;;;;;;4208063;28;20310;-63
2021/03/22 04:23:56;;;;;;;37.17;16.00;;;-1.80;99.90;;;;;;4208395;28;20269;-63
2021/03/22 04:25:57;;;;;;;34.87;16.40;;;-1.90;99.90;;;;;;4207957;28;20273;-62
2021/03/22 04:27:59;;;;;;;38.20;16.70;;;-1.90;99.90;;;;;;4207219;28;20272;-62
2021/03/22 04:30:00;;;;;;;32.67;15.37;;;-1.90;99.90;;;;;;4208270;28;20310;-62
2021/03/22 04:32:01;;;;;;;33.37;16.33;;;-1.90;99.90;;;;;;4207470;28;20265;-64
2021/03/22 04:34:02;;;;;;;35.70;15.90;;;-1.90;99.90;;;;;;4207826;28;20330;-62
2021/03/22 04:36:04;;;;;;;35.37;17.17;;;-1.90;99.90;;;;;;4207581;28;20299;-63
2021/03/22 04:38:07;;;;;;;31.90;16.37;;;-1.90;99.90;;;;;;4207813;28;20273;-61
2021/03/22 04:40:09;;;;;;;34.55;15.63;;;-1.90;99.90;;;;;;4207872;28;20310;-63
2021/03/22 04:42:10;;;;;;;37.97;16.33;;;-1.90;99.90;;;;;;4208532;28;20442;-63
2021/03/22 04:44:11;;;;;;;35.87;16.50;;;-1.80;99.90;;;;;;4207243;28;20299;-65
2021/03/22 04:46:13;;;;;;;40.17;17.50;;;-1.90;99.90;;;;;;4208216;28;20677;-64
2021/03/22 04:48:15;;;;;;;40.10;16.77;;;-1.80;99.90;;;;;;4207369;28;20802;-65
2021/03/22 04:50:18;;;;;;;31.97;15.80;;;-1.80;99.90;;;;;;4207865;28;20264;-63
2021/03/22 04:52:19;;;;;;;34.00;15.70;;;-1.90;99.90;;;;;;4207162;28;20274;-63
2021/03/22 04:54:20;;;;;;;34.33;17.10;;;-1.90;99.90;;;;;;4207798;28;20292;-62
2021/03/22 04:56:22;;;;;;;37.50;16.53;;;-1.90;99.90;;;;;;4206864;28;20273;-62
2021/03/22 04:58:24;;;;;;;36.20;16.38;;;-1.90;99.90;;;;;;4207823;28;20281;-62
2021/03/22 05:00:31;;;;;;;34.55;16.17;;;-1.90;99.90;;;;;;4207046;28;20032;-63
2021/03/22 05:02:34;;;;;;;36.60;15.53;;;-1.90;99.90;;;;;;4190438;28;20032;-64
2021/03/22 05:04:35;;;;;;;34.97;14.63;;;-1.80;99.90;;;;;;4193935;28;20849;-64
2021/03/22 05:06:36;;;;;;;34.93;15.73;;;-1.80;99.90;;;;;;4207084;28;20296;-64
2021/03/22 05:08:37;;;;;;;29.13;15.93;;;-1.70;99.90;;;;;;4207155;28;20318;-63
2021/03/22 05:10:43;;;;;;;29.00;14.83;;;-1.50;99.90;;;;;;4206859;28;20032;-63
2021/03/22 05:12:44;;;;;;;37.97;14.23;;;-1.40;99.90;;;;;;4206842;28;20806;-66
2021/03/22 05:14:45;;;;;;;30.87;14.10;;;-1.30;99.90;;;;;;4204745;28;20300;-62
2021/03/22 05:16:47;;;;;;;49.47;19.77;;;-1.20;99.90;;;;;;4220228;28;20276;-62
2021/03/22 05:18:48;;;;;;;38.90;20.33;;;-1.10;99.90;;;;;;4223758;28;20264;-63
2021/03/22 05:20:54;;;;;;;35.37;16.97;;;-0.90;99.90;;;;;;4224362;28;20621;-62
2021/03/22 05:22:55;;;;;;;85.17;37.33;;;-0.80;99.90;;;;;;4220768;27;20813;-58
2021/03/22 05:24:56;;;;;;;209.87;78.00;;;-0.60;99.90;;;;;;4207436;28;20261;-59
2021/03/22 05:26:57;;;;;;;334.00;109.70;;;-0.50;99.90;;;;;;4204842;28;20261;-60
2021/03/22 05:28:58;;;;;;;209.17;66.57;;;-0.20;99.90;;;;;;4207472;28;20318;-62
2021/03/22 05:31:00;;;;;;;163.03;50.07;;;0.10;99.90;;;;;;4207108;28;20341;-61
2021/03/22 05:33:08;;;;;;;83.33;29.03;;;0.40;99.90;;;;;;4207019;28;21053;-64
2021/03/22 05:35:13;;;;;;;67.83;20.83;;;0.70;99.90;;;;;;4206812;28;20277;-64
2021/03/22 05:37:14;;;;;;;153.63;48.17;;;0.90;99.90;;;;;;4207086;28;20269;-61
2021/03/22 05:39:16;;;;;;;191.97;60.73;;;1.10;99.90;;;;;;4206574;28;20278;-61
2021/03/22 05:41:20;;;;;;;131.87;46.33;;;1.40;99.90;;;;;;4205923;28;20322;-62
2021/03/22 05:43:42;;;;;;;108.33;43.13;;;1.80;99.90;;;;;;4206617;28;20257;-62
2021/03/22 05:46:16;;;;;;;40.63;18.73;;;2.10;99.90;;;;;;4206295;28;20277;-61
2021/03/22 05:48:30;;;;;;;66.87;29.87;;;2.80;99.90;;;;;;4206297;28;20260;-63
2021/03/22 05:50:47;;;;;;;67.57;30.70;;;3.40;99.90;;;;;;4206367;28;20310;-61
2021/03/22 05:53:11;;;;;;;28.43;15.23;;;3.80;99.90;;;;;;4205466;28;20276;-62
2021/03/22 05:55:28;;;;;;;23.60;12.70;;;4.10;99.90;;;;;;4206147;28;20318;-63
2021/03/22 05:57:55;;;;;;;30.53;13.27;;;4.20;99.90;;;;;;4205327;28;20761;-59
2021/03/22 06:00:34;;;;;;;28.30;14.90;;;4.60;99.90;;;;;;4206766;28;20351;-62
2021/03/22 06:02:49;;;;;;;36.03;17.80;;;5.10;97.10;;;;;;4170025;28;20266;-66
2021/03/22 06:04:54;;;;;;;29.43;16.90;;;5.60;98.40;;;;;;4170431;28;20793;-63
2021/03/22 06:06:57;;;;;;;28.60;15.70;;;6.00;96.10;;;;;;4173159;28;20741;-62
2021/03/22 06:09:16;;;;;;;23.90;13.17;;;6.40;94.50;;;;;;4206493;28;20322;-63
2021/03/22 06:11:47;;;;;;;26.80;12.87;;;6.80;92.60;;;;;;4205593;28;20334;-63
2021/03/22 06:13:54;;;;;;;29.23;16.57;;;7.00;85.40;;;;;;4198490;28;20297;-63
2021/03/22 06:16:02;;;;;;;21.67;10.83;;;7.10;89.90;;;;;;4205609;28;20323;-63
2021/03/22 06:18:11;;;;;;;23.13;8.77;;;7.40;86.10;;;;;;4206391;28;20277;-63
2021/03/22 06:20:38;;;;;;;16.20;9.17;;;7.30;83.50;;;;;;4206387;28;20281;-62
2021/03/22 06:22:39;;;;;;;19.87;8.40;;;7.40;81.20;;;;;;4206195;28;20334;-62
2021/03/22 06:24:40;;;;;;;13.30;7.57;;;7.60;80.80;;;;;;4205134;28;20294;-63
2021/03/22 06:26:47;;;;;;;14.93;8.07;;;7.30;77.80;;;;;;4205810;28;20851;-62
2021/03/22 06:28:55;;;;;;;15.37;10.37;;;7.00;75.90;;;;;;4205678;28;20501;-64
2021/03/22 06:31:09;;;;;;;19.13;10.27;;;6.90;77.00;;;;;;4205833;28;20277;-63
2021/03/22 06:33:25;;;;;;;15.47;8.97;;;6.70;78.30;;;;;;4205624;28;20028;-62
2021/03/22 06:35:33;;;;;;;20.63;9.83;;;6.90;76.80;;;;;;4205719;28;20363;-62
2021/03/22 06:37:37;;;;;;;26.43;12.40;;;7.10;76.30;;;;;;4204982;28;20337;-63
2021/03/22 06:39:42;;;;;;;19.53;10.07;;;7.00;76.10;;;;;;4199761;28;20093;-65
2021/03/22 06:41:53;;;;;;;22.07;9.23;;;6.60;75.70;;;;;;4203055;28;20289;-64
2021/03/22 06:43:55;;;;;;;19.00;10.18;;;6.30;75.40;;;;;;4201054;28;20289;-62
2021/03/22 06:46:05;;;;;;;26.00;8.70;;;6.20;76.90;;;;;;4203095;28;20057;-64
2021/03/22 06:48:29;;;;;;;21.65;9.48;;;6.00;77.10;;;;;;4202065;28;20277;-62
2021/03/22 06:50:30;;;;;;;16.63;10.57;;;6.40;75.60;;;;;;4195954;28;20036;-64
2021/03/22 06:52:40;;;;;;;25.37;11.17;;;6.80;76.60;;;;;;4205491;28;20044;-62
2021/03/22 06:54:44;;;;;;;21.92;9.75;;;7.00;74.90;;;;;;4203831;28;20296;-60
2021/03/22 06:57:23;;;;;;;22.77;9.77;;;7.10;75.30;;;;;;4204096;28;20044;-63
2021/03/22 06:59:25;;;;;;;22.93;9.90;;;7.20;73.90;;;;;;4198819;28;20281;-62
2021/03/22 07:01:28;;;;;;;22.93;10.10;;;7.70;74.00;;;;;;4202912;28;20036;-62
2021/03/22 07:03:29;;;;;;;18.00;9.07;;;7.80;72.60;;;;;;4203151;28;20121;-62
2021/03/22 07:05:40;;;;;;;15.27;8.73;;;7.90;73.20;;;;;;4204730;28;20059;-63
2021/03/22 07:08:02;;;;;;;16.87;8.70;;;8.00;70.60;;;;;;4202001;28;20262;-61
2021/03/22 07:10:16;;;;;;;22.27;8.90;;;8.10;70.80;;;;;;4202038;28;20056;-62
2021/03/22 07:12:39;;;;;;;13.57;8.23;;;8.20;69.80;;;;;;4203928;28;20059;-63
2021/03/22 07:14:40;;;;;;;17.43;8.00;;;8.50;68.20;;;;;;4199626;28;20526;-61
2021/03/22 07:16:41;;;;;;;17.13;8.07;;;9.00;69.00;;;;;;4205059;28;20027;-61
2021/03/22 07:18:53;;;;;;;13.77;8.40;;;9.20;68.60;;;;;;4205456;28;20829;-59
2021/03/22 07:21:00;;;;;;;16.03;9.17;;;9.30;67.90;;;;;;4197730;28;20496;-62
2021/03/22 07:24:01;;;;;;;14.30;7.63;;;9.40;67.10;;;;;;4205495;28;20129;-62
2021/03/22 07:26:26;;;;;;;16.25;7.63;;;9.30;60.40;;;;;;4153328;28;20076;-59
2021/03/22 07:28:52;;;;;;;15.47;8.27;;;9.30;62.80;;;;;;4168046;28;20040;-61
2021/03/22 07:31:14;;;;;;;16.50;8.33;;;9.20;63.20;;;;;;4185328;28;20124;-65
2021/03/22 07:33:38;;;;;;;16.97;8.53;;;9.20;62.90;;;;;;4203730;28;20105;-61
2021/03/22 07:36:10;;;;;;;12.77;8.07;;;8.70;64.50;;;;;;4204175;28;20039;-60
2021/03/22 07:38:26;;;;;;;16.30;8.63;;;8.30;64.40;;;;;;4209051;28;20020;-61
2021/03/22 07:40:53;;;;;;;17.67;9.20;;;7.60;65.50;;;;;;4208338;28;20049;-64
2021/03/22 07:43:22;;;;;;;17.70;8.80;;;7.30;66.60;;;;;;4208382;28;20052;-61
2021/03/22 07:45:29;;;;;;;18.10;8.67;;;7.20;66.50;;;;;;4211365;28;20036;-61
2021/03/22 07:47:50;;;;;;;18.67;9.40;;;7.20;67.80;;;;;;4223970;28;20876;-64
2021/03/22 07:50:10;;;;;;;17.08;9.00;;;7.20;67.50;;;;;;4223926;28;20031;-64
2021/03/22 07:52:20;;;;;;;19.20;10.35;;;7.20;67.30;;;;;;4225062;28;20043;-65
2021/03/22 07:54:26;;;;;;;17.55;8.55;;;7.20;67.80;;;;;;4204212;28;20450;-60
2021/03/22 07:56:38;;;;;;;25.63;9.90;;;7.10;67.60;;;;;;4208185;28;20036;-57
2021/03/22 07:59:09;;;;;;;15.23;9.10;;;6.90;67.50;;;;;;4208392;28;20036;-65
2021/03/22 08:01:51;;;;;;;17.38;8.73;;;6.60;68.10;;;;;;4212152;28;20048;-63
2021/03/22 08:04:23;;;;;;;19.70;9.90;;;6.10;67.40;;;;;;4218427;28;20074;-60
2021/03/22 08:06:42;;;;;;;17.43;9.73;;;5.60;68.70;;;;;;4208373;28;20419;-61
2021/03/22 08:08:55;;;;;;;31.43;13.17;;;5.40;69.50;;;;;;4201585;28;20091;-60
2021/03/22 08:11:20;;;;;;;43.60;18.80;;;5.20;69.90;;;;;;4207571;28;20034;-63
2021/03/22 08:13:30;;;;;;;43.93;19.83;;;5.20;69.50;;;;;;4208577;28;20444;-62
2021/03/22 08:15:47;;;;;;;23.90;11.15;;;5.20;69.90;;;;;;4208685;28;20341;-61
2021/03/22 08:18:16;;;;;;;18.70;10.47;;;5.20;70.00;;;;;;4200630;28;20039;-64
2021/03/22 08:20:34;;;;;;;30.77;11.60;;;5.30;68.00;;;;;;4207775;28;20269;-64
2021/03/22 08:22:43;;;;;;;24.57;9.73;;;5.20;67.80;;;;;;4213244;28;20264;-61
2021/03/22 08:25:07;;;;;;;28.83;13.40;;;5.20;69.20;;;;;;4207467;28;20341;-63
2021/03/22 08:27:18;;;;;;;32.40;16.20;;;5.30;68.80;;;;;;4207925;28;20334;-62
2021/03/22 08:29:24;;;;;;;18.73;10.93;;;5.60;67.70;;;;;;4217934;28;20317;-63
2021/03/22 08:32:03;;;;;;;15.83;7.40;;;5.60;66.80;;;;;;4217361;28;21198;-60
2021/03/22 08:34:33;;;;;;;22.33;10.90;;;5.50;65.70;;;;;;4190641;28;20358;-64
2021/03/22 08:36:43;;;;;;;20.50;11.57;;;5.80;66.20;;;;;;4191513;28;20315;-64
2021/03/22 08:38:52;;;;;;;22.70;10.50;;;5.90;64.50;;;;;;4195340;28;20284;-64
2021/03/22 08:40:55;;;;;;;15.17;7.93;;;6.00;64.80;;;;;;4208466;28;20735;-63
2021/03/22 08:43:05;;;;;;;15.90;7.57;;;6.20;64.40;;;;;;4222625;28;20284;-62
2021/03/22 08:45:24;;;;;;;11.63;6.60;;;6.10;60.30;;;;;;4222802;28;20284;-62
2021/03/22 08:47:46;;;;;;;17.77;8.00;;;5.80;60.60;;;;;;4223583;28;20272;-62
2021/03/22 08:49:54;;;;;;;15.07;7.37;;;5.90;61.20;;;;;;4224569;28;20329;-62
2021/03/22 08:51:58;;;;;;;17.57;6.27;;;6.10;61.20;;;;;;4224540;28;20928;-61
2021/03/22 08:54:00;;;;;;;18.13;8.00;;;6.20;60.40;;;;;;4222410;28;20284;-63
2021/03/22 08:56:05;;;;;;;18.97;8.40;;;6.10;58.80;;;;;;4223825;28;21105;-63
2021/03/22 08:58:29;;;;;;;12.83;6.90;;;6.10;59.90;;;;;;4224696;28;20601;-60
2021/03/22 09:00:43;;;;;;;12.77;6.97;;;6.40;59.40;;;;;;4218233;28;20277;-61
2021/03/22 09:02:57;;;;;;;13.03;7.40;;;6.50;59.60;;;;;;4222173;27;20280;-59
2021/03/22 09:05:16;;;;;;;13.67;7.37;;;6.50;59.70;;;;;;4196757;28;20318;-59
2021/03/22 09:07:17;;;;;;;21.10;7.30;;;6.60;58.20;;;;;;4200967;28;20256;-61
2021/03/22 09:09:24;;;;;;;12.60;7.30;;;6.50;59.50;;;;;;4202340;28;20272;-60
2021/03/22 09:13:31;;;;;;;12.07;6.50;;;6.40;60.10;;;;;;4207552;28;20271;-61
2021/03/22 09:15:39;;;;;;;13.30;6.57;;;6.20;59.00;;;;;;4207634;28;20096;-60
2021/03/22 09:17:49;;;;;;;17.43;6.83;;;5.90;58.90;;;;;;4217039;28;20717;-58
2021/03/22 09:20:12;;;;;;;14.65;6.50;;;5.80;60.40;;;;;;4223518;28;20333;-60
2021/03/22 09:22:13;;;;;;;15.53;6.87;;;5.90;59.80;;;;;;4223448;28;20089;-60
2021/03/22 09:24:36;;;;;;;11.80;6.60;;;5.70;60.50;;;;;;4224213;28;20759;-60
2021/03/22 09:26:50;;;;;;;12.47;6.87;;;5.30;60.40;;;;;;4215136;28;20349;-58
2021/03/22 09:28:58;;;;;;;21.70;8.37;;;5.40;62.20;;;;;;4206769;28;20294;-59
2021/03/22 09:31:11;;;;;;;14.57;8.00;;;5.60;62.40;;;;;;4209770;28;20318;-60
2021/03/22 09:33:50;;;;;;;16.07;7.73;;;5.80;62.80;;;;;;4212405;28;20280;-59
2021/03/22 09:36:05;;;;;;;17.97;6.97;;;5.90;62.00;;;;;;4207823;28;20353;-60
2021/03/22 09:38:32;;;;;;;15.63;7.37;;;5.60;62.20;;;;;;4206902;28;20285;-59
2021/03/22 09:40:33;;;;;;;10.87;6.87;;;5.70;63.40;;;;;;4207184;28;20277;-59
2021/03/22 09:42:34;;;;;;;17.67;7.27;;;5.90;63.30;;;;;;4206495;28;20261;-62
2021/03/22 09:44:58;;;;;;;12.83;7.10;;;5.90;63.00;;;;;;4207422;28;20273;-59
2021/03/22 09:47:18;;;;;;;13.30;6.97;;;5.70;63.90;;;;;;4214541;28;20326;-61
2021/03/22 09:49:23;;;;;;;12.45;6.65;;;5.50;64.50;;;;;;4207484;28;20269;-63
2021/03/22 09:51:33;;;;;;;24.93;10.70;;;5.60;65.10;;;;;;4216625;28;20629;-61
2021/03/22 09:53:52;;;;;;;15.03;7.23;;;5.80;65.00;;;;;;4191057;28;21795;-60
2021/03/22 09:55:59;;;;;;;17.77;7.33;;;6.00;64.40;;;;;;4206257;28;20357;-61
2021/03/22 09:58:17;;;;;;;17.10;6.53;;;6.20;64.60;;;;;;4202923;28;20342;-59
2021/03/22 10:00:27;;;;;;;15.17;7.50;;;6.40;65.00;;;;;;4206756;28;20326;-60
2021/03/22 10:02:45;;;;;;;10.40;6.60;;;6.40;63.40;;;;;;4214288;28;20348;-64
2021/03/22 10:05:20;;;;;;;13.17;6.00;;;6.20;63.60;;;;;;4215621;28;20338;-62
2021/03/22 10:07:30;;;;;;;13.07;6.43;;;6.20;63.70;;;;;;4206693;28;20790;-61
2021/03/22 10:09:54;;;;;;;17.65;7.78;;;6.20;63.80;;;;;;4218452;28;20280;-62
2021/03/22 10:11:56;;;;;;;13.53;5.80;;;6.30;64.60;;;;;;4221354;28;20039;-62
2021/03/22 10:14:01;;;;;;;12.57;6.33;;;6.50;64.90;;;;;;4208448;28;20330;-62
2021/03/22 10:16:37;;;;;;;14.40;7.63;;;6.60;64.50;;;;;;4206281;28;20292;-61
2021/03/22 10:18:38;;;;;;;10.93;7.33;;;6.60;63.70;;;;;;4204795;28;20711;-61
2021/03/22 10:20:42;;;;;;;11.47;6.20;;;6.50;64.50;;;;;;4211014;28;20279;-63
2021/03/22 10:22:45;;;;;;;11.50;6.10;;;6.50;64.30;;;;;;4209140;28;20285;-61
2021/03/22 10:25:16;;;;;;;8.97;5.30;;;6.40;64.70;;;;;;4205829;28;20302;-61
2021/03/22 10:27:37;;;;;;;;;;;6.00;62.50;;;;;;4191918;28;20272;-59
2021/03/22 10:29:38;;;;;;;9.13;5.77;;;5.80;63.80;;;;;;4199421;28;19911;-60
2021/03/22 10:31:40;;;;;;;19.40;10.20;;;5.80;64.40;;;;;;4214511;28;20768;-61
2021/03/22 10:34:02;;;;;;;12.00;6.10;;;5.80;64.60;;;;;;4210623;28;20284;-62
2021/03/22 10:36:04;;;;;;;13.70;5.97;;;6.00;64.70;;;;;;4211453;28;20295;-66
2021/03/22 10:38:05;;;;;;;19.40;7.73;;;6.10;64.60;;;;;;4212548;27;20269;-61
2021/03/22 10:40:27;;;;;;;10.33;5.90;;;6.20;64.50;;;;;;4205579;28;20272;-59
2021/03/22 10:42:33;;;;;;;13.10;6.80;;;6.30;63.60;;;;;;4205883;28;20260;-63
2021/03/22 10:44:37;;;;;;;14.20;7.60;;;6.30;64.20;;;;;;4212218;28;20264;-61
2021/03/22 10:46:38;;;;;;;14.07;6.13;;;6.30;63.70;;;;;;4208836;28;20261;-60
2021/03/22 10:48:41;;;;;;;9.70;6.37;;;6.20;64.20;;;;;;4222435;28;20336;-62
2021/03/22 10:50:42;;;;;;;11.73;6.10;;;6.20;64.80;;;;;;4222983;28;20283;-61
2021/03/22 10:52:43;;;;;;;11.37;6.70;;;6.30;65.10;;;;;;4222527;28;20333;-61
2021/03/22 10:54:46;;;;;;;12.43;6.70;;;6.30;66.40;;;;;;4222353;28;20348;-60
2021/03/22 10:56:48;;;;;;;15.07;6.80;;;6.20;64.90;;;;;;4213211;28;20310;-61
2021/03/22 10:58:50;;;;;;;16.57;6.37;;;6.20;65.10;;;;;;4204552;28;20325;-60
2021/03/22 11:01:03;;;;;;;11.13;6.20;;;6.20;64.90;;;;;;4201676;28;20268;-61
2021/03/22 11:03:06;;;;;;;19.60;6.60;;;5.80;64.30;;;;;;4206137;28;20323;-60